First Ferry Vi — VRS4293 — position and weather

sailwx.info

Track history (hours):
 
Tides and Currents Weather Stations Pressure Air Temp Water Temp Dewpoint Dewpoint Depression Visibility Wind Speed Wind Dir Waves Ship Positions

First Ferry Vi

Last reported at 2016-Jun-25 10:20 UTC. Time now 2016-Jun-25 10:39 UTC.
Position N 22°17' E 114°04'.

Length 36 m; draft 1.8 m.

Type: Tug. MMSI: 477995028.

Date/timePositionNaut miles runAvg speedWind from/ knotsBaromVisibWave heightAir tempDewpointWater temp
2016-Jun-25 10:20N 22°17' E 114°04'6 7.6
2016-Jun-25 09:33N 22°17' E 114°10'7 4.9
2016-Jun-25 08:12N 22°16' E 114°03'6 9.9
2016-Jun-25 07:33N 22°17' E 114°10'3 2.4
2016-Jun-25 06:06N 22°18' E 114°06'3 6.3
2016-Jun-25 05:33N 22°17' E 114°10'2 2.3
2016-Jun-25 04:33N 22°18' E 114°12'1 0.8
2016-Jun-25 03:33N 22°18' E 114°11'6 4.0
2016-Jun-25 02:08N 22°16' E 114°05'5 8.1
2016-Jun-25 01:34N 22°17' E 114°10'2 2.2
2016-Jun-25 00:33N 22°19' E 114°09'5 3.5
2016-Jun-24 23:16N 22°16' E 114°05'1 0.1
2016-Jun-24 15:24N 22°17' E 114°06'0 0.2
2016-Jun-24 14:15N 22°17' E 114°06'5 6.7
2016-Jun-24 13:33N 22°18' E 114°11'2 1.9
2016-Jun-24 12:33N 22°17' E 114°09'3 3.3
2016-Jun-24 11:30N 22°17' E 114°06'0 0.0
2016-Jun-24 10:16N 22°17' E 114°06'6 7.8
2016-Jun-24 09:34N 22°18' E 114°11'1 1.1
2016-Jun-24 08:33N 22°19' E 114°12'0 0.0
2016-Jun-24 07:33N 22°19' E 114°12'3 0.7
2016-Jun-24 03:33N 22°17' E 114°10'0 0.2
2016-Jun-24 01:33N 22°17' E 114°10'2 1.9
2016-Jun-24 00:33N 22°19' E 114°09'4 3.3
2016-Jun-23 23:15N 22°17' E 114°05'4 0.5
2016-Jun-23 15:33N 22°17' E 114°10'4 3.1
2016-Jun-23 14:16N 22°17' E 114°05'4 5.7
2016-Jun-23 13:34N 22°17' E 114°10'0 0.2
2016-Jun-23 12:33N 22°17' E 114°09'4 3.8
2016-Jun-23 11:31N 22°17' E 114°05'1 0.8
2016-Jun-23 10:19N 22°17' E 114°04'7 8.6
2016-Jun-23 09:33N 22°18' E 114°11'1 1.2
2016-Jun-23 08:33N 22°19' E 114°12'0 0.0
2016-Jun-23 07:33N 22°19' E 114°12'2 0.8
2016-Jun-23 05:33N 22°18' E 114°11'1 0.6
2016-Jun-23 03:32N 22°17' E 114°10'0 0.2
2016-Jun-23 01:33N 22°17' E 114°10'2 1.9
2016-Jun-23 00:33N 22°19' E 114°09'4 3.2
2016-Jun-22 23:15N 22°17' E 114°05'4 0.5
2016-Jun-22 15:34N 22°17' E 114°10'4 2.8
2016-Jun-22 14:15N 22°17' E 114°06'6 8.1
2016-Jun-22 13:34N 22°18' E 114°11'2 1.7
2016-Jun-22 12:33N 22°17' E 114°10'3 2.9
2016-Jun-22 11:29N 22°17' E 114°06'5 5.9
2016-Jun-22 10:33N 22°19' E 114°12'0 0.0
2016-Jun-22 09:33N 22°19' E 114°12'0 0.0
2016-Jun-22 08:33N 22°19' E 114°12'1 1.5
2016-Jun-22 07:34N 22°18' E 114°11'1 0.7
2016-Jun-22 05:33N 22°17' E 114°10'0 0.0
2016-Jun-22 03:33N 22°17' E 114°10'0 0.2
2016-Jun-22 01:33N 22°17' E 114°10'2 1.6
2016-Jun-22 00:33N 22°19' E 114°09'2 1.4
2016-Jun-21 23:09N 22°18' E 114°07'2 0.3
2016-Jun-21 15:33N 22°17' E 114°10'3 2.2
2016-Jun-21 14:13N 22°17' E 114°06'3 4.3
2016-Jun-21 13:33N 22°17' E 114°10'0 0.2
2016-Jun-21 12:33N 22°17' E 114°10'3 2.7
2016-Jun-21 11:28N 22°17' E 114°06'1 0.5
2016-Jun-21 10:15N 22°17' E 114°06'4 2.1
2016-Jun-21 08:28N 22°20' E 114°09'1 0.7
2016-Jun-21 07:33N 22°19' E 114°09'1 0.5
2016-Jun-21 06:17N 22°20' E 114°09'1 0.2
2016-Jun-21 00:33N 22°19' E 114°09'3 2.5
2016-Jun-20 23:13N 22°17' E 114°06'3 0.4
2016-Jun-20 15:34N 22°17' E 114°10'4 3.2
2016-Jun-20 14:17N 22°17' E 114°05'6 8.0
2016-Jun-20 13:33N 22°18' E 114°11'2 1.7
2016-Jun-20 12:33N 22°17' E 114°09'3 3.1
2016-Jun-20 11:30N 22°17' E 114°06'2 1.4
2016-Jun-20 10:18N 22°17' E 114°04'7 9.4
2016-Jun-20 09:33N 22°18' E 114°12'1 0.8
2016-Jun-20 08:33N 22°19' E 114°12'0 0.0
2016-Jun-20 07:33N 22°19' E 114°12'0 0.0
2016-Jun-20 06:33N 22°19' E 114°12'1 1.2
2016-Jun-20 05:34N 22°18' E 114°12'2 1.0
2016-Jun-20 03:33N 22°17' E 114°10'4 2.8
2016-Jun-20 02:04N 22°16' E 114°05'5 9.1
2016-Jun-20 01:33N 22°17' E 114°10'2 1.9
2016-Jun-20 00:33N 22°19' E 114°09'4 3.3
2016-Jun-19 23:15N 22°17' E 114°05'4 0.5
2016-Jun-19 15:34N 22°17' E 114°10'0 0.0
2016-Jun-19 13:33N 22°17' E 114°10'0 0.0
2016-Jun-19 11:32N 22°17' E 114°10'0 0.0
2016-Jun-19 09:32N 22°17' E 114°10'0 0.0
2016-Jun-19 07:31N 22°17' E 114°10'0 0.0
2016-Jun-19 05:33N 22°17' E 114°10'2 1.9
2016-Jun-19 04:16N 22°17' E 114°07'3 3.4
2016-Jun-19 03:32N 22°19' E 114°09'1 0.5
2016-Jun-19 02:15N 22°20' E 114°09'0 0.0
2016-Jun-19 01:31N 22°20' E 114°09'0 0.0
2016-Jun-19 00:21N 22°20' E 114°09'2 3.1
2016-Jun-18 23:33N 22°17' E 114°10'0 0.0
2016-Jun-18 16:33N 22°17' E 114°10'0 0.1
2016-Jun-18 14:33N 22°17' E 114°10'3 3.2
2016-Jun-18 13:33N 22°17' E 114°06'0 0.1
2016-Jun-18 11:14N 22°17' E 114°06'1 2.1
2016-Jun-18 10:33N 22°17' E 114°08'2 2.0
2016-Jun-18 09:27N 22°17' E 114°05'3 2.9
2016-Jun-18 08:33N 22°18' E 114°08'2 2.1
2016-Jun-18 07:25N 22°17' E 114°06'2 2.5
2016-Jun-18 06:33N 22°18' E 114°08'1 1.2
2016-Jun-18 05:24N 22°17' E 114°06'3 3.8
2016-Jun-18 04:33N 22°17' E 114°10'0 0.1
2016-Jun-18 02:34N 22°17' E 114°10'3 2.4
2016-Jun-18 01:30N 22°20' E 114°09'2 1.2
2016-Jun-17 23:34N 22°17' E 114°09'0 0.0
2016-Jun-17 16:33N 22°17' E 114°10'0 0.1
2016-Jun-17 14:33N 22°17' E 114°10'3 2.9
2016-Jun-17 13:33N 22°17' E 114°06'1 0.3
2016-Jun-17 11:16N 22°17' E 114°06'4 6.2
2016-Jun-17 10:33N 22°17' E 114°10'1 0.6
2016-Jun-17 09:34N 22°18' E 114°11'1 0.7
2016-Jun-17 07:33N 22°17' E 114°10'1 0.9
2016-Jun-17 06:33N 22°17' E 114°10'1 0.4
2016-Jun-17 04:33N 22°17' E 114°10'0 0.0
2016-Jun-17 02:34N 22°17' E 114°10'2 2.2
2016-Jun-17 01:33N 22°18' E 114°12'2 1.1
2016-Jun-16 23:34N 22°17' E 114°10'0 0.0
2016-Jun-16 16:34N 22°17' E 114°10'0 0.1
2016-Jun-16 14:33N 22°17' E 114°10'3 0.9
2016-Jun-16 11:14N 22°17' E 114°07'3 1.7
2016-Jun-16 09:34N 22°17' E 114°10'0 0.0
2016-Jun-16 07:33N 22°17' E 114°10'1 1.4
2016-Jun-16 06:33N 22°18' E 114°11'1 0.7
2016-Jun-16 04:33N 22°17' E 114°10'0 0.0
2016-Jun-16 02:22N 22°17' E 114°10'2 2.2
2016-Jun-16 01:15N 22°20' E 114°09'3 1.5
2016-Jun-15 23:33N 22°17' E 114°10'0 0.0
2016-Jun-15 16:33N 22°17' E 114°09'5 3.6
2016-Jun-15 15:04N 22°17' E 114°04'510.6
2016-Jun-15 14:33N 22°17' E 114°10'3 2.7
2016-Jun-15 13:33N 22°17' E 114°07'2 0.7
2016-Jun-15 11:18N 22°17' E 114°05'6 7.3
2016-Jun-15 10:33N 22°18' E 114°11'2 1.5
2016-Jun-15 09:33N 22°19' E 114°12'  
Track history (hours):
 
Tides and Currents Weather Stations Pressure Air Temp Water Temp Dewpoint Dewpoint Depression Visibility Wind Speed Wind Dir Waves Ship Positions

First Ferry Vi

Last reported at 2016-Jun-25 10:20 UTC. Time now 2016-Jun-25 10:39 UTC.
Position N 22°17' E 114°04'.

Length 36 m; draft 1.8 m.

Type: Tug. MMSI: 477995028.

Date/timePositionNaut miles runAvg speedWind from/ knotsBaromVisibWave heightAir tempDewpointWater temp
2016-Jun-25 10:20N 22°17' E 114°04'6 7.6
2016-Jun-25 09:33N 22°17' E 114°10'7 4.9
2016-Jun-25 08:12N 22°16' E 114°03'6 9.9
2016-Jun-25 07:33N 22°17' E 114°10'3 2.4
2016-Jun-25 06:06N 22°18' E 114°06'3 6.3
2016-Jun-25 05:33N 22°17' E 114°10'2 2.3
2016-Jun-25 04:33N 22°18' E 114°12'1 0.8
2016-Jun-25 03:33N 22°18' E 114°11'6 4.0
2016-Jun-25 02:08N 22°16' E 114°05'5 8.1
2016-Jun-25 01:34N 22°17' E 114°10'2 2.2
2016-Jun-25 00:33N 22°19' E 114°09'5 3.5
2016-Jun-24 23:16N 22°16' E 114°05'1 0.1
2016-Jun-24 15:24N 22°17' E 114°06'0 0.2
2016-Jun-24 14:15N 22°17' E 114°06'5 6.7
2016-Jun-24 13:33N 22°18' E 114°11'2 1.9
2016-Jun-24 12:33N 22°17' E 114°09'3 3.3
2016-Jun-24 11:30N 22°17' E 114°06'0 0.0
2016-Jun-24 10:16N 22°17' E 114°06'6 7.8
2016-Jun-24 09:34N 22°18' E 114°11'1 1.1
2016-Jun-24 08:33N 22°19' E 114°12'0 0.0
2016-Jun-24 07:33N 22°19' E 114°12'3 0.7
2016-Jun-24 03:33N 22°17' E 114°10'0 0.2
2016-Jun-24 01:33N 22°17' E 114°10'2 1.9
2016-Jun-24 00:33N 22°19' E 114°09'4 3.3
2016-Jun-23 23:15N 22°17' E 114°05'4 0.5
2016-Jun-23 15:33N 22°17' E 114°10'4 3.1
2016-Jun-23 14:16N 22°17' E 114°05'4 5.7
2016-Jun-23 13:34N 22°17' E 114°10'0 0.2
2016-Jun-23 12:33N 22°17' E 114°09'4 3.8
2016-Jun-23 11:31N 22°17' E 114°05'1 0.8
2016-Jun-23 10:19N 22°17' E 114°04'7 8.6
2016-Jun-23 09:33N 22°18' E 114°11'1 1.2
2016-Jun-23 08:33N 22°19' E 114°12'0 0.0
2016-Jun-23 07:33N 22°19' E 114°12'2 0.8
2016-Jun-23 05:33N 22°18' E 114°11'1 0.6
2016-Jun-23 03:32N 22°17' E 114°10'0 0.2
2016-Jun-23 01:33N 22°17' E 114°10'2 1.9
2016-Jun-23 00:33N 22°19' E 114°09'4 3.2
2016-Jun-22 23:15N 22°17' E 114°05'4 0.5
2016-Jun-22 15:34N 22°17' E 114°10'4 2.8
2016-Jun-22 14:15N 22°17' E 114°06'6 8.1
2016-Jun-22 13:34N 22°18' E 114°11'2 1.7
2016-Jun-22 12:33N 22°17' E 114°10'3 2.9
2016-Jun-22 11:29N 22°17' E 114°06'5 5.9
2016-Jun-22 10:33N 22°19' E 114°12'0 0.0
2016-Jun-22 09:33N 22°19' E 114°12'0 0.0
2016-Jun-22 08:33N 22°19' E 114°12'1 1.5
2016-Jun-22 07:34N 22°18' E 114°11'1 0.7
2016-Jun-22 05:33N 22°17' E 114°10'0 0.0
2016-Jun-22 03:33N 22°17' E 114°10'0 0.2
2016-Jun-22 01:33N 22°17' E 114°10'2 1.6
2016-Jun-22 00:33N 22°19' E 114°09'2 1.4
2016-Jun-21 23:09N 22°18' E 114°07'2 0.3
2016-Jun-21 15:33N 22°17' E 114°10'3 2.2
2016-Jun-21 14:13N 22°17' E 114°06'3 4.3
2016-Jun-21 13:33N 22°17' E 114°10'0 0.2
2016-Jun-21 12:33N 22°17' E 114°10'3 2.7
2016-Jun-21 11:28N 22°17' E 114°06'1 0.5
2016-Jun-21 10:15N 22°17' E 114°06'4 2.1
2016-Jun-21 08:28N 22°20' E 114°09'1 0.7
2016-Jun-21 07:33N 22°19' E 114°09'1 0.5
2016-Jun-21 06:17N 22°20' E 114°09'1 0.2
2016-Jun-21 00:33N 22°19' E 114°09'3 2.5
2016-Jun-20 23:13N 22°17' E 114°06'3 0.4
2016-Jun-20 15:34N 22°17' E 114°10'4 3.2
2016-Jun-20 14:17N 22°17' E 114°05'6 8.0
2016-Jun-20 13:33N 22°18' E 114°11'2 1.7
2016-Jun-20 12:33N 22°17' E 114°09'3 3.1
2016-Jun-20 11:30N 22°17' E 114°06'2 1.4
2016-Jun-20 10:18N 22°17' E 114°04'7 9.4
2016-Jun-20 09:33N 22°18' E 114°12'1 0.8
2016-Jun-20 08:33N 22°19' E 114°12'0 0.0
2016-Jun-20 07:33N 22°19' E 114°12'0 0.0
2016-Jun-20 06:33N 22°19' E 114°12'1 1.2
2016-Jun-20 05:34N 22°18' E 114°12'2 1.0
2016-Jun-20 03:33N 22°17' E 114°10'4 2.8
2016-Jun-20 02:04N 22°16' E 114°05'5 9.1
2016-Jun-20 01:33N 22°17' E 114°10'2 1.9
2016-Jun-20 00:33N 22°19' E 114°09'4 3.3
2016-Jun-19 23:15N 22°17' E 114°05'4 0.5
2016-Jun-19 15:34N 22°17' E 114°10'0 0.0
2016-Jun-19 13:33N 22°17' E 114°10'0 0.0
2016-Jun-19 11:32N 22°17' E 114°10'0 0.0
2016-Jun-19 09:32N 22°17' E 114°10'0 0.0
2016-Jun-19 07:31N 22°17' E 114°10'0 0.0
2016-Jun-19 05:33N 22°17' E 114°10'2 1.9
2016-Jun-19 04:16N 22°17' E 114°07'3 3.4
2016-Jun-19 03:32N 22°19' E 114°09'1 0.5
2016-Jun-19 02:15N 22°20' E 114°09'0 0.0
2016-Jun-19 01:31N 22°20' E 114°09'0 0.0
2016-Jun-19 00:21N 22°20' E 114°09'2 3.1
2016-Jun-18 23:33N 22°17' E 114°10'0 0.0
2016-Jun-18 16:33N 22°17' E 114°10'0 0.1
2016-Jun-18 14:33N 22°17' E 114°10'3 3.2
2016-Jun-18 13:33N 22°17' E 114°06'0 0.1
2016-Jun-18 11:14N 22°17' E 114°06'1 2.1
2016-Jun-18 10:33N 22°17' E 114°08'2 2.0
2016-Jun-18 09:27N 22°17' E 114°05'3 2.9
2016-Jun-18 08:33N 22°18' E 114°08'2 2.1
2016-Jun-18 07:25N 22°17' E 114°06'2 2.5
2016-Jun-18 06:33N 22°18' E 114°08'1 1.2
2016-Jun-18 05:24N 22°17' E 114°06'3 3.8
2016-Jun-18 04:33N 22°17' E 114°10'0 0.1
2016-Jun-18 02:34N 22°17' E 114°10'3 2.4
2016-Jun-18 01:30N 22°20' E 114°09'2 1.2
2016-Jun-17 23:34N 22°17' E 114°09'0 0.0
2016-Jun-17 16:33N 22°17' E 114°10'0 0.1
2016-Jun-17 14:33N 22°17' E 114°10'3 2.9
2016-Jun-17 13:33N 22°17' E 114°06'1 0.3
2016-Jun-17 11:16N 22°17' E 114°06'4 6.2
2016-Jun-17 10:33N 22°17' E 114°10'1 0.6
2016-Jun-17 09:34N 22°18' E 114°11'1 0.7
2016-Jun-17 07:33N 22°17' E 114°10'1 0.9
2016-Jun-17 06:33N 22°17' E 114°10'1 0.4
2016-Jun-17 04:33N 22°17' E 114°10'0 0.0
2016-Jun-17 02:34N 22°17' E 114°10'2 2.2
2016-Jun-17 01:33N 22°18' E 114°12'2 1.1
2016-Jun-16 23:34N 22°17' E 114°10'0 0.0
2016-Jun-16 16:34N 22°17' E 114°10'0 0.1
2016-Jun-16 14:33N 22°17' E 114°10'3 0.9
2016-Jun-16 11:14N 22°17' E 114°07'3 1.7
2016-Jun-16 09:34N 22°17' E 114°10'0 0.0
2016-Jun-16 07:33N 22°17' E 114°10'1 1.4
2016-Jun-16 06:33N 22°18' E 114°11'1 0.7
2016-Jun-16 04:33N 22°17' E 114°10'0 0.0
2016-Jun-16 02:22N 22°17' E 114°10'2 2.2
2016-Jun-16 01:15N 22°20' E 114°09'3 1.5
2016-Jun-15 23:33N 22°17' E 114°10'0 0.0
2016-Jun-15 16:33N 22°17' E 114°09'5 3.6
2016-Jun-15 15:04N 22°17' E 114°04'510.6
2016-Jun-15 14:33N 22°17' E 114°10'3 2.7
2016-Jun-15 13:33N 22°17' E 114°07'2 0.7
2016-Jun-15 11:18N 22°17' E 114°05'6 7.3
2016-Jun-15 10:33N 22°18' E 114°11'2 1.5
2016-Jun-15 09:33N 22°19' E 114°12'  

Dump ship's entire track history